createdAt,value
2019-03-16T00:00:45.364Z,22.67
2019-03-16T00:03:17.731Z,20.70
2019-03-16T00:05:49.806Z,22.48
2019-03-16T00:08:22.027Z,20.70
2019-03-16T00:10:56.283Z,20.75
2019-03-16T00:13:28.866Z,20.60
2019-03-16T00:16:00.688Z,19.92
2019-03-16T00:18:32.604Z,20.08
2019-03-16T00:21:04.848Z,20.25
2019-03-16T00:23:36.829Z,20.30
2019-03-16T00:26:08.630Z,21.80
2019-03-16T00:28:41.897Z,22.48
2019-03-16T00:31:13.986Z,24.43
2019-03-16T00:33:46.342Z,22.82
2019-03-16T00:36:19.179Z,22.37
2019-03-16T00:38:51.331Z,21.30
2019-03-16T00:41:23.469Z,20.35
2019-03-16T00:43:55.740Z,20.08
2019-03-16T00:46:27.983Z,19.90
2019-03-16T00:49:00.156Z,19.37
2019-03-16T00:51:34.181Z,20.43
2019-03-16T00:54:06.451Z,20.80
2019-03-16T00:56:39.337Z,20.57
2019-03-16T00:59:11.411Z,19.67
2019-03-16T01:01:44.441Z,18.37
2019-03-16T01:04:16.610Z,19.40
2019-03-16T01:06:48.578Z,18.75
2019-03-16T01:09:20.770Z,19.40
2019-03-16T01:11:53.379Z,18.02
2019-03-16T01:14:25.309Z,19.62
2019-03-16T01:16:57.348Z,17.67
2019-03-16T01:19:29.788Z,18.98
2019-03-16T01:22:03.079Z,19.50
2019-03-16T01:24:35.200Z,18.20
2019-03-16T01:27:14.488Z,19.15
2019-03-16T01:29:47.681Z,18.98
2019-03-16T01:32:19.816Z,17.62
2019-03-16T01:34:51.712Z,17.67
2019-03-16T01:37:25.372Z,16.90
2019-03-16T01:39:57.564Z,16.97
2019-03-16T01:42:30.896Z,17.35
2019-03-16T01:45:02.910Z,16.82
2019-03-16T01:47:54.039Z,17.55
2019-03-16T01:50:26.611Z,17.15
2019-03-16T01:52:58.635Z,17.60
2019-03-16T01:55:31.845Z,16.85
2019-03-16T01:58:03.961Z,16.30
2019-03-16T02:00:36.176Z,17.42
2019-03-16T02:03:11.020Z,17.52
2019-03-16T02:05:43.252Z,16.32
2019-03-16T02:08:15.499Z,15.80
2019-03-16T02:10:56.828Z,16.15
2019-03-16T02:13:28.277Z,16.20
2019-03-16T02:16:10.940Z,15.50
2019-03-16T02:18:37.520Z,15.15
2019-03-16T02:21:09.664Z,16.05
2019-03-16T02:23:41.804Z,15.95
2019-03-16T02:26:15.763Z,14.70
2019-03-16T02:28:47.656Z,15.10
2019-03-16T02:31:20.590Z,15.83
2019-03-16T02:33:52.754Z,15.45
2019-03-16T02:36:27.775Z,14.07
2019-03-16T02:38:59.967Z,15.95
2019-03-16T02:41:32.071Z,14.65
2019-03-16T02:44:11.508Z,14.95
2019-03-16T02:46:47.834Z,14.15
2019-03-16T02:49:20.570Z,15.75
2019-03-16T02:51:55.573Z,15.28
2019-03-16T02:54:28.250Z,14.40
2019-03-16T02:57:00.528Z,14.28
2019-03-16T02:59:33.043Z,15.03
2019-03-16T03:02:05.228Z,13.88
2019-03-16T03:04:45.689Z,13.68
2019-03-16T03:07:14.930Z,14.90
2019-03-16T03:09:47.254Z,14.43
2019-03-16T03:12:19.570Z,14.10
2019-03-16T03:14:52.629Z,15.20
2019-03-16T03:17:25.245Z,14.00
2019-03-16T03:19:57.393Z,15.18
2019-03-16T03:22:48.938Z,15.30
2019-03-16T03:25:21.410Z,14.83
2019-03-16T03:27:53.287Z,15.65
2019-03-16T03:30:25.694Z,15.98
2019-03-16T03:33:00.097Z,14.23
2019-03-16T03:35:32.441Z,15.93
2019-03-16T03:38:07.691Z,15.18
2019-03-16T03:40:40.538Z,14.98
2019-03-16T03:43:12.759Z,14.75
2019-03-16T03:45:45.622Z,14.58
2019-03-16T03:48:18.606Z,13.58
2019-03-16T03:50:50.897Z,15.63
2019-03-16T03:53:23.209Z,13.85
2019-03-16T03:55:56.353Z,14.63
2019-03-16T03:58:28.511Z,15.28
2019-03-16T04:01:00.697Z,15.58
2019-03-16T04:03:32.845Z,14.40
2019-03-16T04:06:06.609Z,15.13
2019-03-16T04:08:41.426Z,14.87
2019-03-16T04:11:13.876Z,15.55
2019-03-16T04:13:45.815Z,14.40
2019-03-16T04:16:18.096Z,14.98
2019-03-16T04:19:10.886Z,14.10
2019-03-16T04:21:43.239Z,14.87
2019-03-16T04:24:15.189Z,14.43
2019-03-16T04:26:49.729Z,15.25
2019-03-16T04:29:21.487Z,15.55
2019-03-16T04:31:54.213Z,14.75
2019-03-16T04:34:29.537Z,15.80
2019-03-16T04:37:04.744Z,15.35
2019-03-16T04:39:37.120Z,14.68
2019-03-16T04:42:11.512Z,16.12
2019-03-16T04:44:45.051Z,15.10
2019-03-16T04:47:19.725Z,14.60
2019-03-16T04:49:54.394Z,13.88
2019-03-16T04:52:28.569Z,15.98
2019-03-16T04:55:00.898Z,15.93
2019-03-16T04:57:32.905Z,15.15
2019-03-16T05:00:06.191Z,15.38
2019-03-16T05:02:38.234Z,14.53
2019-03-16T05:05:28.825Z,14.55
2019-03-16T05:08:03.248Z,15.35
2019-03-16T05:10:39.611Z,15.78
2019-03-16T05:13:11.680Z,14.58
2019-03-16T05:15:43.775Z,14.60
2019-03-16T05:18:16.163Z,17.37
2019-03-16T05:20:59.650Z,16.15
2019-03-16T05:23:31.693Z,14.85
2019-03-16T05:26:03.947Z,15.20
2019-03-16T05:28:36.092Z,14.65
2019-03-16T05:31:08.121Z,15.70
2019-03-16T05:33:40.399Z,15.83
2019-03-16T05:36:12.327Z,16.20
2019-03-16T05:38:45.025Z,16.67
2019-03-16T05:41:16.936Z,16.15
2019-03-16T05:43:48.956Z,15.48
2019-03-16T05:46:21.003Z,15.40
2019-03-16T05:48:53.016Z,16.12
2019-03-16T05:51:25.197Z,17.50
2019-03-16T05:53:57.463Z,17.10
2019-03-16T05:56:32.541Z,18.40
2019-03-16T05:59:04.766Z,18.02
2019-03-16T06:01:36.681Z,16.75
2019-03-16T06:04:08.671Z,16.60
2019-03-16T06:06:40.586Z,17.23
2019-03-16T06:09:13.414Z,17.50
2019-03-16T06:11:45.282Z,16.27
2019-03-16T06:14:20.681Z,17.67
2019-03-16T06:16:54.110Z,16.35
2019-03-16T06:19:28.686Z,17.57
2019-03-16T06:22:01.113Z,19.42
2019-03-16T06:24:33.551Z,19.00
2019-03-16T06:27:05.490Z,20.35
2019-03-16T06:29:37.571Z,19.87
2019-03-16T06:32:09.606Z,19.75
2019-03-16T06:34:41.590Z,19.95
2019-03-16T06:37:15.805Z,21.77
2019-03-16T06:39:47.898Z,29.85
2019-03-16T06:42:20.682Z,21.12
2019-03-16T06:44:52.921Z,20.52
2019-03-16T06:47:25.164Z,20.25
2019-03-16T06:50:03.809Z,19.32
2019-03-16T06:52:37.638Z,20.35
2019-03-16T06:55:10.913Z,19.73
2019-03-16T06:57:43.105Z,19.95
2019-03-16T07:00:25.595Z,21.70
2019-03-16T07:02:57.892Z,21.70
2019-03-16T07:05:38.184Z,22.07
2019-03-16T07:08:04.240Z,22.27
2019-03-16T07:10:37.737Z,20.65
2019-03-16T07:13:30.595Z,21.25
2019-03-16T07:16:03.290Z,22.85
2019-03-16T07:18:35.431Z,21.87
2019-03-16T07:21:07.891Z,22.25
2019-03-16T07:23:40.499Z,21.35
2019-03-16T07:26:15.200Z,20.00
2019-03-16T07:28:46.195Z,21.20
2019-03-16T07:31:18.654Z,21.00
2019-03-16T07:33:51.506Z,21.23
2019-03-16T07:36:23.467Z,20.52
2019-03-16T07:38:55.442Z,21.60
2019-03-16T07:41:27.557Z,21.90
2019-03-16T07:43:59.389Z,21.97
2019-03-16T07:46:31.697Z,23.02
2019-03-16T07:49:04.171Z,22.07
2019-03-16T07:51:37.451Z,24.18
2019-03-16T07:54:09.801Z,22.70
2019-03-16T07:56:42.073Z,24.67
2019-03-16T07:59:13.905Z,22.17
2019-03-16T08:01:45.853Z,22.85
2019-03-16T08:04:37.161Z,24.20
2019-03-16T08:07:15.546Z,24.45
2019-03-16T08:10:11.989Z,22.80
2019-03-16T08:12:45.419Z,23.02
2019-03-16T08:15:17.491Z,24.40
2019-03-16T08:17:49.821Z,23.42
2019-03-16T08:20:23.446Z,25.02
2019-03-16T08:22:55.264Z,23.60
2019-03-16T08:25:30.149Z,25.70
2019-03-16T08:28:22.544Z,23.62
2019-03-16T08:30:56.890Z,25.08
2019-03-16T08:33:29.525Z,23.55
2019-03-16T08:36:21.859Z,26.45
2019-03-16T08:38:54.832Z,25.52
2019-03-16T08:41:27.029Z,25.05
2019-03-16T08:43:59.346Z,25.57
2019-03-16T08:46:31.556Z,25.48
2019-03-16T08:49:03.726Z,24.92
2019-03-16T08:51:36.056Z,25.00
2019-03-16T08:54:28.572Z,25.05
2019-03-16T08:57:01.286Z,24.05
2019-03-16T08:59:33.568Z,23.25
2019-03-16T09:02:07.657Z,24.05
2019-03-16T09:04:40.463Z,24.35
2019-03-16T09:07:12.894Z,23.90
2019-03-16T09:09:44.881Z,23.83
2019-03-16T09:12:16.977Z,24.75
2019-03-16T09:14:49.378Z,23.92
2019-03-16T09:17:21.583Z,24.18
2019-03-16T09:20:13.198Z,22.90
2019-03-16T09:22:45.622Z,22.80
2019-03-16T09:25:19.884Z,23.40
2019-03-16T09:27:53.135Z,22.98
2019-03-16T09:30:25.216Z,21.70
2019-03-16T09:32:57.881Z,21.15
2019-03-16T09:35:30.043Z,22.77
2019-03-16T09:38:05.385Z,20.70
2019-03-16T09:40:37.394Z,21.73
2019-03-16T09:43:29.584Z,21.77
2019-03-16T09:46:03.514Z,21.62
2019-03-16T09:48:36.072Z,24.43
2019-03-16T09:51:08.129Z,23.47
2019-03-16T09:53:42.765Z,22.60
2019-03-16T09:56:15.082Z,22.67
2019-03-16T09:58:47.696Z,22.75
2019-03-16T10:01:20.091Z,24.10
2019-03-16T10:03:52.444Z,23.95
2019-03-16T10:06:24.759Z,21.35
2019-03-16T10:08:57.639Z,22.42
2019-03-16T10:11:30.005Z,22.52
2019-03-16T10:14:02.210Z,22.02
2019-03-16T10:16:35.361Z,22.07
2019-03-16T10:19:07.900Z,22.05
2019-03-16T10:21:59.770Z,22.90
2019-03-16T10:24:55.605Z,23.80
2019-03-16T10:27:28.086Z,24.02
2019-03-16T10:30:00.551Z,23.98
2019-03-16T10:32:33.327Z,23.65
2019-03-16T10:35:07.152Z,23.87
2019-03-16T10:37:39.726Z,25.32
2019-03-16T10:40:15.551Z,23.32
2019-03-16T10:42:47.390Z,23.67
2019-03-16T10:45:19.834Z,25.10
2019-03-16T10:47:52.869Z,24.12
2019-03-16T10:50:26.307Z,24.40
2019-03-16T10:52:58.263Z,24.95
2019-03-16T10:55:30.977Z,24.35
2019-03-16T10:58:02.862Z,23.87
2019-03-16T11:00:35.048Z,23.98
2019-03-16T11:03:07.410Z,24.87
2019-03-16T11:05:39.350Z,24.50
2019-03-16T11:08:11.189Z,24.72
2019-03-16T11:10:43.268Z,24.35
2019-03-16T11:13:35.778Z,25.25
2019-03-16T11:16:08.465Z,23.98
2019-03-16T11:18:41.585Z,24.47
2019-03-16T11:21:13.661Z,25.00
2019-03-16T11:23:49.175Z,25.68
2019-03-16T11:26:21.474Z,25.17
2019-03-16T11:28:53.673Z,27.02
2019-03-16T11:31:25.750Z,26.70
2019-03-16T11:33:57.833Z,25.00
2019-03-16T11:36:30.076Z,25.48
2019-03-16T11:39:03.166Z,26.93
2019-03-16T11:41:38.192Z,30.23
2019-03-16T11:44:23.583Z,34.60
2019-03-16T11:46:51.506Z,40.10
2019-03-16T11:49:23.577Z,40.63
2019-03-16T11:51:55.854Z,42.83
2019-03-16T11:54:28.070Z,42.75
2019-03-16T11:57:00.339Z,44.50
2019-03-16T11:59:51.574Z,45.92
2019-03-16T12:02:25.971Z,41.55
2019-03-16T12:05:04.779Z,38.20
2019-03-16T12:07:36.957Z,36.20
2019-03-16T12:10:12.404Z,35.25
2019-03-16T12:12:47.560Z,34.98
2019-03-16T12:15:19.924Z,33.65
2019-03-16T12:17:53.386Z,34.38
2019-03-16T12:20:26.674Z,33.55
2019-03-16T12:22:58.590Z,31.25
2019-03-16T12:25:30.710Z,33.23
2019-03-16T12:28:04.593Z,33.73
2019-03-16T12:30:36.939Z,36.48
2019-03-16T12:33:09.249Z,38.17
2019-03-16T12:35:41.248Z,38.73
2019-03-16T12:38:14.596Z,37.55
2019-03-16T12:41:06.075Z,37.23
2019-03-16T12:43:38.507Z,39.38
2019-03-16T12:46:10.780Z,38.35
2019-03-16T12:49:03.227Z,42.73
2019-03-16T12:51:35.205Z,48.83
2019-03-16T12:54:07.426Z,47.98
2019-03-16T12:56:39.842Z,52.53
2019-03-16T12:59:32.722Z,47.35
2019-03-16T13:02:04.827Z,46.02
2019-03-16T13:04:36.742Z,43.33
2019-03-16T13:07:08.896Z,42.70
2019-03-16T13:09:42.669Z,41.35
2019-03-16T13:12:14.788Z,41.75
2019-03-16T13:14:47.011Z,43.40
2019-03-16T13:17:19.145Z,41.85
2019-03-16T13:19:51.197Z,42.73
2019-03-16T13:22:24.798Z,41.10
2019-03-16T13:24:56.919Z,42.70
2019-03-16T13:27:29.653Z,41.28
2019-03-16T13:30:01.690Z,43.05
2019-03-16T13:32:33.773Z,40.63
2019-03-16T13:35:07.265Z,40.08
2019-03-16T13:37:39.390Z,41.28
2019-03-16T13:40:15.079Z,39.98
2019-03-16T13:42:47.016Z,39.30
2019-03-16T13:45:19.163Z,39.58
2019-03-16T13:47:52.030Z,43.17
2019-03-16T13:50:24.306Z,39.35
2019-03-16T13:52:56.815Z,40.58
2019-03-16T13:55:29.084Z,39.38
2019-03-16T13:58:01.299Z,39.00
2019-03-16T14:00:33.414Z,39.23
2019-03-16T14:03:06.001Z,40.43
2019-03-16T14:05:38.092Z,38.98
2019-03-16T14:08:11.719Z,39.53
2019-03-16T14:10:44.300Z,37.20
2019-03-16T14:13:16.339Z,39.50
2019-03-16T14:15:48.559Z,38.80
2019-03-16T14:18:20.663Z,38.95
2019-03-16T14:20:52.911Z,38.90
2019-03-16T14:23:26.002Z,37.98
2019-03-16T14:25:58.338Z,39.45
2019-03-16T14:28:34.275Z,40.65
2019-03-16T14:31:06.290Z,40.00
2019-03-16T14:33:38.623Z,38.28
2019-03-16T14:36:11.160Z,39.85
2019-03-16T14:38:44.460Z,40.48
2019-03-16T14:41:16.739Z,40.50
2019-03-16T14:43:48.922Z,40.08
2019-03-16T14:46:20.975Z,39.48
2019-03-16T14:48:53.398Z,39.58
2019-03-16T14:51:27.494Z,39.27
2019-03-16T14:53:59.926Z,40.38
2019-03-16T14:56:31.944Z,41.58
2019-03-16T14:59:03.778Z,40.78
2019-03-16T15:01:35.798Z,41.13
2019-03-16T15:04:08.349Z,41.25
2019-03-16T15:06:40.523Z,41.88
2019-03-16T15:09:12.685Z,41.48
2019-03-16T15:11:44.726Z,39.67
2019-03-16T15:14:21.846Z,40.45
2019-03-16T15:16:50.918Z,42.83
2019-03-16T15:19:22.905Z,39.60
2019-03-16T15:21:56.529Z,40.67
2019-03-16T15:24:28.599Z,40.43
2019-03-16T15:27:01.602Z,41.35
2019-03-16T15:29:34.551Z,39.45
2019-03-16T15:32:06.616Z,39.88
2019-03-16T15:34:38.863Z,40.20
2019-03-16T15:37:10.890Z,40.63
2019-03-16T15:39:43.058Z,41.10
2019-03-16T15:42:15.331Z,41.35
2019-03-16T15:44:48.377Z,40.48
2019-03-16T15:47:20.498Z,41.77
2019-03-16T15:49:52.739Z,42.78
2019-03-16T15:52:24.879Z,43.20
2019-03-16T15:54:57.097Z,44.18
2019-03-16T15:57:29.163Z,41.20
2019-03-16T16:00:01.144Z,42.13
2019-03-16T16:02:33.925Z,42.15
2019-03-16T16:05:07.681Z,40.73
2019-03-16T16:07:41.986Z,41.90
2019-03-16T16:10:17.645Z,42.05
2019-03-16T16:12:51.225Z,41.58
2019-03-16T16:15:23.344Z,43.20
2019-03-16T16:18:14.928Z,42.60
2019-03-16T16:20:46.963Z,42.05
2019-03-16T16:23:21.787Z,41.98
2019-03-16T16:25:53.713Z,43.08
2019-03-16T16:28:26.790Z,41.20
2019-03-16T16:30:58.938Z,41.83
2019-03-16T16:33:31.144Z,41.50
2019-03-16T16:36:03.150Z,40.88
2019-03-16T16:38:35.604Z,42.35
2019-03-16T16:41:07.745Z,40.78
2019-03-16T16:43:39.810Z,41.08
2019-03-16T16:46:11.939Z,40.55
2019-03-16T16:48:44.060Z,41.90
2019-03-16T16:51:19.349Z,41.13
2019-03-16T16:53:55.270Z,41.90
2019-03-16T16:56:27.315Z,42.62
2019-03-16T16:58:59.798Z,42.50
2019-03-16T17:01:31.632Z,43.02
2019-03-16T17:04:06.795Z,42.17
2019-03-16T17:06:39.947Z,45.10
2019-03-16T17:09:11.874Z,43.80
2019-03-16T17:11:44.215Z,43.02
2019-03-16T17:14:16.496Z,46.37
2019-03-16T17:16:48.634Z,45.35
2019-03-16T17:19:23.775Z,46.75
2019-03-16T17:21:56.101Z,50.05
2019-03-16T17:24:29.053Z,49.90
2019-03-16T17:27:01.039Z,47.58
2019-03-16T17:29:34.169Z,47.53
2019-03-16T17:32:06.513Z,47.75
2019-03-16T17:34:41.096Z,48.30
2019-03-16T17:37:21.969Z,46.48
2019-03-16T17:39:54.234Z,46.18
2019-03-16T17:42:26.354Z,47.62
2019-03-16T17:44:58.829Z,45.60
2019-03-16T17:47:30.911Z,48.38
2019-03-16T17:50:02.877Z,46.48
2019-03-16T17:52:36.349Z,48.02
2019-03-16T17:55:11.429Z,50.05
2019-03-16T17:57:45.430Z,49.00
2019-03-16T18:00:19.556Z,49.48
2019-03-16T18:02:52.623Z,47.05
2019-03-16T18:05:25.172Z,48.08
2019-03-16T18:07:58.631Z,49.27
2019-03-16T18:10:30.729Z,47.20
2019-03-16T18:13:02.771Z,47.50
2019-03-16T18:15:34.980Z,48.48
2019-03-16T18:18:07.103Z,47.15
2019-03-16T18:20:39.358Z,49.13
2019-03-16T18:23:11.401Z,48.00
2019-03-16T18:25:43.508Z,47.38
2019-03-16T18:28:15.720Z,49.30
2019-03-16T18:30:49.010Z,48.87
2019-03-16T18:33:20.965Z,50.25
2019-03-16T18:35:53.323Z,47.93
2019-03-16T18:38:25.475Z,49.25
2019-03-16T18:40:57.421Z,47.23
2019-03-16T18:43:29.480Z,47.75
2019-03-16T18:46:01.471Z,49.35
2019-03-16T18:48:33.457Z,47.25
2019-03-16T18:51:05.648Z,48.78
2019-03-16T18:53:37.728Z,46.77
2019-03-16T18:56:09.934Z,47.23
2019-03-16T18:58:41.993Z,47.67
2019-03-16T19:01:14.216Z,48.65
2019-03-16T19:03:46.266Z,48.85
2019-03-16T19:06:18.215Z,47.85
2019-03-16T19:08:50.463Z,48.08
2019-03-16T19:11:22.559Z,48.33
2019-03-16T19:13:54.729Z,46.75
2019-03-16T19:16:26.676Z,48.23
2019-03-16T19:18:58.701Z,48.00
2019-03-16T19:21:30.992Z,49.88
2019-03-16T19:24:03.122Z,51.68
2019-03-16T19:26:35.192Z,50.38
2019-03-16T19:29:07.458Z,51.08
2019-03-16T19:31:40.396Z,48.95
2019-03-16T19:34:12.335Z,49.63
2019-03-16T19:36:44.592Z,53.35
2019-03-16T19:39:16.917Z,51.55
2019-03-16T19:41:49.252Z,52.98
2019-03-16T19:44:21.524Z,52.78
2019-03-16T19:46:54.207Z,53.70
2019-03-16T19:49:26.431Z,53.92
2019-03-16T19:51:58.356Z,53.30
2019-03-16T19:54:30.541Z,54.42
2019-03-16T19:57:14.970Z,55.30
2019-03-16T19:59:36.984Z,56.68
2019-03-16T20:02:09.234Z,54.05
2019-03-16T20:04:41.136Z,53.15
2019-03-16T20:07:19.260Z,54.77
2019-03-16T20:09:47.113Z,53.98
2019-03-16T20:12:19.354Z,54.38
2019-03-16T20:14:52.275Z,52.55
2019-03-16T20:17:24.814Z,52.93
2019-03-16T20:19:56.958Z,55.58
2019-03-16T20:22:30.226Z,52.85
2019-03-16T20:25:01.997Z,55.23
2019-03-16T20:27:34.546Z,54.93
2019-03-16T20:30:09.668Z,54.85
2019-03-16T20:32:43.165Z,54.90
2019-03-16T20:35:34.593Z,54.98
2019-03-16T20:38:06.964Z,58.20
2019-03-16T20:40:39.145Z,57.45
2019-03-16T20:43:11.288Z,57.98
2019-03-16T20:45:43.697Z,57.95
2019-03-16T20:48:15.691Z,57.75
2019-03-16T20:50:47.648Z,58.13
2019-03-16T20:53:19.463Z,58.95
2019-03-16T20:55:51.542Z,57.25
2019-03-16T20:58:23.714Z,58.33
2019-03-16T21:00:58.272Z,57.30
2019-03-16T21:03:30.565Z,58.23
2019-03-16T21:06:03.097Z,58.50
2019-03-16T21:08:35.370Z,57.38
2019-03-16T21:11:07.852Z,55.38
2019-03-16T21:13:41.264Z,57.48
2019-03-16T21:16:14.234Z,54.75
2019-03-16T21:18:46.299Z,54.65
2019-03-16T21:21:18.493Z,54.13
2019-03-16T21:23:50.753Z,54.77
2019-03-16T21:26:23.213Z,54.53
2019-03-16T21:28:55.484Z,55.00
2019-03-16T21:31:27.742Z,53.17
2019-03-16T21:34:00.518Z,53.42
2019-03-16T21:36:41.408Z,51.65
2019-03-16T21:39:09.957Z,51.55
2019-03-16T21:41:44.404Z,53.00
2019-03-16T21:44:15.956Z,51.70
2019-03-16T21:46:48.192Z,52.23
2019-03-16T21:49:21.047Z,51.00
2019-03-16T21:51:53.155Z,51.83
2019-03-16T21:54:25.780Z,50.45
2019-03-16T21:56:58.090Z,48.80
2019-03-16T21:59:30.205Z,50.33
2019-03-16T22:02:02.143Z,50.00
2019-03-16T22:04:34.754Z,50.05
2019-03-16T22:07:06.955Z,48.58
2019-03-16T22:09:39.124Z,49.67
2019-03-16T22:12:11.650Z,48.70
2019-03-16T22:14:43.772Z,48.48
2019-03-16T22:17:15.779Z,49.75
2019-03-16T22:19:48.031Z,48.60
2019-03-16T22:22:20.214Z,47.58
2019-03-16T22:24:52.228Z,48.10
2019-03-16T22:27:24.715Z,48.20
2019-03-16T22:29:57.075Z,47.62
2019-03-16T22:32:29.279Z,47.17
2019-03-16T22:35:01.283Z,45.75
2019-03-16T22:37:34.653Z,46.28
2019-03-16T22:40:09.463Z,47.03
2019-03-16T22:42:41.505Z,47.93
2019-03-16T22:45:15.698Z,45.20
2019-03-16T22:47:47.741Z,45.12
2019-03-16T22:50:22.519Z,46.20
2019-03-16T22:52:54.729Z,46.55
2019-03-16T22:55:26.586Z,46.25
2019-03-16T22:57:58.942Z,47.43
2019-03-16T23:00:32.226Z,44.85
2019-03-16T23:03:04.419Z,46.55
2019-03-16T23:05:36.529Z,44.67
2019-03-16T23:08:27.989Z,45.80
2019-03-16T23:10:59.817Z,47.73
2019-03-16T23:13:31.971Z,49.88
2019-03-16T23:16:04.267Z,47.62
2019-03-16T23:18:36.655Z,45.92
2019-03-16T23:21:08.718Z,43.52
2019-03-16T23:23:42.622Z,43.50
2019-03-16T23:26:14.807Z,44.83
2019-03-16T23:28:47.142Z,46.20
2019-03-16T23:31:19.400Z,44.73
2019-03-16T23:33:51.919Z,45.12
2019-03-16T23:36:24.249Z,44.45
2019-03-16T23:38:58.117Z,45.05
2019-03-16T23:41:30.768Z,45.12
2019-03-16T23:44:03.013Z,43.25
2019-03-16T23:46:35.022Z,45.45
2019-03-16T23:49:07.358Z,44.38
2019-03-16T23:51:39.677Z,45.12
2019-03-16T23:54:11.827Z,43.33
2019-03-16T23:56:44.465Z,44.55
2019-03-16T23:59:16.560Z,45.88
